createdAt,value
2022-11-29T00:01:09.982Z,69.08
2022-11-29T00:03:37.496Z,68.89
2022-11-29T00:06:05.822Z,68.62
2022-11-29T00:08:32.958Z,68.55
2022-11-29T00:11:04.361Z,68.93
2022-11-29T00:13:32.685Z,68.62
2022-11-29T00:16:03.263Z,68.70
2022-11-29T00:18:30.197Z,68.44
2022-11-29T00:20:57.122Z,68.59
2022-11-29T00:23:23.780Z,68.51
2022-11-29T00:25:50.477Z,68.87
2022-11-29T00:28:17.310Z,68.81
2022-11-29T00:30:45.463Z,68.66
2022-11-29T00:33:12.174Z,68.62
2022-11-29T00:35:38.859Z,68.83
2022-11-29T00:38:05.773Z,68.82
2022-11-29T00:40:32.462Z,68.74
2022-11-29T00:42:59.122Z,69.09
2022-11-29T00:45:25.852Z,68.55
2022-11-29T00:47:54.046Z,68.95
2022-11-29T00:50:21.216Z,68.82
2022-11-29T00:52:47.924Z,68.62
2022-11-29T00:55:14.995Z,68.75
2022-11-29T00:57:42.056Z,68.41
2022-11-29T01:00:09.893Z,68.95
2022-11-29T01:02:36.650Z,68.71
2022-11-29T01:05:05.541Z,68.80
2022-11-29T01:07:32.255Z,68.26
2022-11-29T01:09:59.150Z,68.24
2022-11-29T01:12:25.868Z,68.19
2022-11-29T01:14:52.556Z,68.02
2022-11-29T01:17:19.404Z,67.47
2022-11-29T01:19:50.581Z,67.41
2022-11-29T01:22:19.063Z,67.25
2022-11-29T01:24:46.230Z,67.07
2022-11-29T01:27:13.377Z,67.02
2022-11-29T01:29:40.228Z,67.05
2022-11-29T01:32:06.892Z,66.88
2022-11-29T01:34:33.696Z,66.92
2022-11-29T01:37:00.488Z,67.02
2022-11-29T01:39:28.512Z,66.67
2022-11-29T01:41:55.431Z,66.47
2022-11-29T01:44:59.632Z,66.44
2022-11-29T01:47:26.624Z,66.42
2022-11-29T01:49:53.353Z,66.44
2022-11-29T01:52:23.997Z,66.08
2022-11-29T01:54:55.572Z,66.30
2022-11-29T01:57:26.811Z,66.11
2022-11-29T01:59:58.227Z,65.96
2022-11-29T02:02:32.932Z,66.24
2022-11-29T02:05:02.670Z,65.90
2022-11-29T02:07:29.647Z,66.25
2022-11-29T02:09:57.886Z,66.29
2022-11-29T02:12:34.928Z,66.16
2022-11-29T02:15:24.899Z,65.80
2022-11-29T02:18:06.615Z,65.88
2022-11-29T02:20:57.647Z,65.85
2022-11-29T02:23:47.527Z,66.06
2022-11-29T02:26:29.369Z,65.98
2022-11-29T02:29:44.305Z,66.32
2022-11-29T02:32:29.897Z,66.16
2022-11-29T02:35:08.248Z,66.83
2022-11-29T02:37:52.045Z,66.52
2022-11-29T02:40:54.620Z,67.18
2022-11-29T02:43:58.766Z,66.98
2022-11-29T02:46:48.742Z,67.52
2022-11-29T02:49:27.803Z,67.35
2022-11-29T02:52:00.327Z,67.30
2022-11-29T02:54:34.861Z,67.29
2022-11-29T02:57:11.800Z,67.63
2022-11-29T02:59:45.739Z,67.31
2022-11-29T03:02:22.918Z,67.28
2022-11-29T03:04:58.543Z,67.19
2022-11-29T03:07:35.816Z,67.66
2022-11-29T03:10:09.145Z,67.34
2022-11-29T03:12:40.298Z,67.31
2022-11-29T03:15:19.428Z,67.66
2022-11-29T03:18:01.138Z,67.45
2022-11-29T03:20:38.999Z,67.28
2022-11-29T03:23:18.955Z,67.52
2022-11-29T03:25:53.419Z,67.58
2022-11-29T03:28:25.026Z,67.53
2022-11-29T03:30:59.732Z,68.12
2022-11-29T03:33:35.884Z,68.12
2022-11-29T03:36:07.480Z,67.77
2022-11-29T03:38:39.827Z,68.34
2022-11-29T03:41:18.294Z,68.10
2022-11-29T03:43:50.624Z,68.44
2022-11-29T03:46:26.458Z,68.26
2022-11-29T03:48:59.470Z,68.35
2022-11-29T03:51:41.000Z,68.46
2022-11-29T03:54:10.975Z,68.93
2022-11-29T03:56:39.957Z,68.52
2022-11-29T03:59:24.599Z,68.84
2022-11-29T04:02:18.495Z,68.80
2022-11-29T04:05:21.208Z,68.95
2022-11-29T04:08:02.630Z,69.09
2022-11-29T04:11:02.803Z,68.69
2022-11-29T04:13:58.424Z,69.23
2022-11-29T04:17:02.343Z,68.96
2022-11-29T04:20:01.057Z,69.26
2022-11-29T04:22:56.830Z,69.10
2022-11-29T04:25:52.950Z,69.01
2022-11-29T04:28:53.946Z,69.19
2022-11-29T04:31:36.462Z,69.05
2022-11-29T04:34:29.870Z,69.23
2022-11-29T04:37:18.730Z,69.03
2022-11-29T04:40:27.014Z,69.55
2022-11-29T04:43:34.778Z,69.42
2022-11-29T04:46:29.830Z,69.28
2022-11-29T04:49:16.329Z,69.64
2022-11-29T04:51:58.912Z,69.89
2022-11-29T04:54:31.150Z,69.67
2022-11-29T04:57:08.139Z,69.71
2022-11-29T04:59:43.351Z,69.59
2022-11-29T05:02:27.043Z,69.83
2022-11-29T05:05:03.972Z,69.87
2022-11-29T05:07:37.182Z,69.83
2022-11-29T05:10:22.885Z,69.71
2022-11-29T05:12:59.700Z,69.66
2022-11-29T05:15:50.199Z,69.83
2022-11-29T05:18:26.730Z,69.97
2022-11-29T05:21:02.488Z,69.45
2022-11-29T05:23:40.059Z,69.41
2022-11-29T05:26:14.523Z,69.32
2022-11-29T05:28:53.498Z,68.91
2022-11-29T05:31:29.442Z,68.90
2022-11-29T05:34:07.839Z,68.88
2022-11-29T05:36:43.895Z,68.78
2022-11-29T05:39:20.548Z,68.57
2022-11-29T05:42:02.601Z,69.02
2022-11-29T05:44:36.478Z,68.99
2022-11-29T05:47:04.698Z,68.85
2022-11-29T05:49:40.266Z,68.53
2022-11-29T05:52:21.520Z,68.86
2022-11-29T05:55:00.602Z,69.05
2022-11-29T05:57:36.222Z,68.80
2022-11-29T06:00:06.567Z,69.17
2022-11-29T06:02:49.167Z,69.05
2022-11-29T06:05:24.902Z,69.14
2022-11-29T06:07:58.137Z,68.85
2022-11-29T06:10:28.650Z,68.90
2022-11-29T06:13:05.826Z,68.50
2022-11-29T06:16:19.002Z,69.08
2022-11-29T06:19:11.962Z,68.49
2022-11-29T06:21:45.908Z,68.58
2022-11-29T06:24:29.812Z,68.49
2022-11-29T06:27:15.770Z,68.85
2022-11-29T06:29:48.190Z,68.17
2022-11-29T06:32:25.242Z,68.81
2022-11-29T06:34:56.410Z,69.05
2022-11-29T06:37:27.782Z,68.69
2022-11-29T06:39:55.355Z,69.13
2022-11-29T06:42:21.980Z,68.95
2022-11-29T06:44:49.349Z,68.67
2022-11-29T06:47:26.771Z,68.82
2022-11-29T06:49:58.897Z,68.97
2022-11-29T06:52:37.629Z,68.75
2022-11-29T06:55:12.938Z,68.62
2022-11-29T06:57:55.856Z,68.57
2022-11-29T07:00:26.921Z,68.75
2022-11-29T07:03:15.500Z,68.67
2022-11-29T07:05:42.956Z,68.05
2022-11-29T07:08:15.185Z,68.76
2022-11-29T07:10:43.515Z,68.43
2022-11-29T07:13:12.434Z,68.57
2022-11-29T07:15:42.092Z,68.50
2022-11-29T07:18:21.622Z,68.66
2022-11-29T07:20:58.733Z,68.72
2022-11-29T07:23:33.438Z,68.93
2022-11-29T07:26:15.086Z,68.68
2022-11-29T07:28:53.458Z,68.85
2022-11-29T07:31:29.011Z,68.81
2022-11-29T07:34:08.966Z,68.90
2022-11-29T07:36:47.881Z,69.02
2022-11-29T07:39:25.115Z,69.23
2022-11-29T07:42:02.646Z,69.38
2022-11-29T07:44:38.976Z,68.82
2022-11-29T07:47:05.829Z,69.17
2022-11-29T07:49:33.997Z,69.46
2022-11-29T07:52:00.957Z,69.46
2022-11-29T07:54:27.930Z,69.09
2022-11-29T07:56:54.652Z,69.23
2022-11-29T07:59:21.416Z,69.09
2022-11-29T08:01:48.286Z,69.21
2022-11-29T08:04:15.206Z,68.76
2022-11-29T08:06:43.249Z,69.12
2022-11-29T08:09:10.252Z,68.84
2022-11-29T08:11:36.992Z,68.84
2022-11-29T08:14:05.277Z,69.14
2022-11-29T08:16:32.436Z,69.01
2022-11-29T08:18:59.321Z,69.14
2022-11-29T08:21:26.578Z,68.71
2022-11-29T08:23:55.116Z,69.11
2022-11-29T08:26:25.628Z,69.38
2022-11-29T08:28:57.043Z,69.51
2022-11-29T08:31:23.755Z,69.26
2022-11-29T08:33:50.490Z,69.32
2022-11-29T08:36:19.458Z,69.48
2022-11-29T08:38:46.721Z,69.20
2022-11-29T08:41:16.632Z,69.45
2022-11-29T08:43:43.800Z,69.53
2022-11-29T08:46:16.725Z,69.11
2022-11-29T08:48:45.246Z,69.92
2022-11-29T08:51:12.260Z,69.75
2022-11-29T08:53:41.795Z,69.18
2022-11-29T08:56:41.852Z,69.29
2022-11-29T08:58:57.123Z,69.41
2022-11-29T09:01:24.185Z,69.53
2022-11-29T09:03:59.794Z,69.25
2022-11-29T09:06:27.669Z,69.24
2022-11-29T09:08:54.724Z,69.38
2022-11-29T09:11:22.910Z,69.29
2022-11-29T09:13:52.126Z,69.41
2022-11-29T09:16:22.486Z,69.29
2022-11-29T09:18:51.819Z,69.40
2022-11-29T09:21:19.349Z,69.12
2022-11-29T09:23:46.987Z,68.85
2022-11-29T09:26:18.080Z,68.82
2022-11-29T09:28:45.108Z,69.03
2022-11-29T09:31:14.316Z,68.87
2022-11-29T09:33:43.235Z,68.82
2022-11-29T09:36:11.158Z,68.98
2022-11-29T09:38:38.531Z,69.06
2022-11-29T09:41:14.947Z,68.42
2022-11-29T09:43:53.118Z,68.70
2022-11-29T09:46:33.323Z,68.34
2022-11-29T09:49:18.000Z,68.42
2022-11-29T09:51:53.682Z,68.88
2022-11-29T09:54:29.662Z,68.78
2022-11-29T09:56:57.404Z,68.70
2022-11-29T09:59:29.142Z,68.95
2022-11-29T10:02:00.407Z,68.87
2022-11-29T10:04:32.442Z,69.15
2022-11-29T10:07:06.080Z,68.88
2022-11-29T10:09:39.084Z,68.63
2022-11-29T10:12:14.009Z,69.15
2022-11-29T10:14:46.851Z,68.46
2022-11-29T10:17:25.190Z,68.49
2022-11-29T10:19:59.311Z,68.25
2022-11-29T10:22:38.226Z,68.50
2022-11-29T10:25:06.950Z,68.34
2022-11-29T10:27:36.171Z,67.80
2022-11-29T10:30:03.277Z,67.44
2022-11-29T10:32:32.716Z,67.95
2022-11-29T10:35:02.408Z,68.09
2022-11-29T10:37:32.678Z,67.88
2022-11-29T10:40:04.246Z,68.06
2022-11-29T10:42:48.936Z,67.44
2022-11-29T10:45:18.223Z,67.71
2022-11-29T10:47:46.608Z,68.27
2022-11-29T10:50:16.794Z,68.08
2022-11-29T10:52:43.656Z,68.31
2022-11-29T10:55:12.564Z,67.86
2022-11-29T10:57:59.152Z,67.81
2022-11-29T11:00:28.274Z,67.74
2022-11-29T11:02:54.841Z,68.25
2022-11-29T11:05:25.691Z,68.47
2022-11-29T11:07:56.246Z,68.03
2022-11-29T11:13:19.280Z,68.00
2022-11-29T11:15:48.182Z,68.38
2022-11-29T11:18:19.730Z,68.24
2022-11-29T11:20:51.799Z,68.79
2022-11-29T11:23:23.876Z,68.03
2022-11-29T11:25:55.739Z,68.15
2022-11-29T11:28:23.315Z,67.81
2022-11-29T11:30:53.789Z,67.80
2022-11-29T11:33:22.384Z,67.89
2022-11-29T11:36:09.835Z,68.25
2022-11-29T11:38:38.307Z,67.87
2022-11-29T11:41:06.828Z,68.03
2022-11-29T11:43:35.090Z,68.05
2022-11-29T11:46:03.357Z,68.62
2022-11-29T11:48:30.331Z,68.11
2022-11-29T11:50:58.388Z,68.24
2022-11-29T11:53:26.865Z,68.37
2022-11-29T11:55:55.984Z,68.52
2022-11-29T11:58:23.708Z,68.49
2022-11-29T12:01:06.869Z,68.00
2022-11-29T12:03:39.201Z,67.90
2022-11-29T12:06:23.491Z,67.50
2022-11-29T12:08:57.905Z,66.81
2022-11-29T12:11:27.164Z,66.49
2022-11-29T12:13:56.698Z,66.63
2022-11-29T12:16:29.513Z,67.04
2022-11-29T12:19:05.188Z,67.63
2022-11-29T12:21:34.075Z,67.81
2022-11-29T12:24:04.226Z,67.61
2022-11-29T12:26:56.297Z,67.77
2022-11-29T12:29:24.908Z,67.42
2022-11-29T12:31:59.267Z,67.53
2022-11-29T12:34:37.211Z,67.23
2022-11-29T12:37:08.031Z,67.14
2022-11-29T12:39:44.491Z,67.96
2022-11-29T12:42:16.580Z,67.50
2022-11-29T12:44:50.957Z,67.14
2022-11-29T12:47:38.822Z,67.17
2022-11-29T12:50:20.458Z,67.07
2022-11-29T12:52:58.903Z,67.20
2022-11-29T12:55:30.194Z,67.40
2022-11-29T12:58:02.338Z,67.31
2022-11-29T13:00:32.828Z,67.65
2022-11-29T13:03:06.838Z,67.75
2022-11-29T13:05:42.375Z,67.73
2022-11-29T13:08:20.610Z,67.77
2022-11-29T13:11:01.542Z,67.61
2022-11-29T13:13:34.651Z,67.61
2022-11-29T13:16:06.131Z,67.87
2022-11-29T13:18:36.757Z,67.28
2022-11-29T13:21:07.707Z,67.43
2022-11-29T13:24:07.477Z,66.93
2022-11-29T13:26:31.115Z,66.81
2022-11-29T13:28:58.104Z,66.61
2022-11-29T13:31:25.696Z,66.53
2022-11-29T13:33:59.511Z,67.36
2022-11-29T13:36:32.683Z,67.48
2022-11-29T13:39:05.770Z,67.23
2022-11-29T13:41:34.894Z,67.31
2022-11-29T13:44:04.593Z,67.93
2022-11-29T13:46:35.104Z,67.56
2022-11-29T13:49:02.178Z,67.19
2022-11-29T13:51:31.392Z,67.53
2022-11-29T13:54:00.076Z,67.50
2022-11-29T13:56:32.950Z,67.41
2022-11-29T13:59:01.615Z,67.49
2022-11-29T14:01:28.592Z,68.02
2022-11-29T14:04:04.683Z,67.64
2022-11-29T14:06:36.495Z,67.48
2022-11-29T14:09:21.100Z,67.60
2022-11-29T14:11:51.576Z,67.70
2022-11-29T14:17:11.810Z,68.00
2022-11-29T14:19:38.495Z,67.91
2022-11-29T14:22:19.890Z,67.95
2022-11-29T14:25:49.237Z,67.67
2022-11-29T14:28:25.091Z,67.91
2022-11-29T14:30:52.441Z,67.49
2022-11-29T14:33:24.661Z,67.53
2022-11-29T14:36:00.330Z,67.14
2022-11-29T14:38:31.225Z,67.52
2022-11-29T14:41:00.911Z,67.29
2022-11-29T14:43:32.354Z,67.20
2022-11-29T14:46:09.188Z,67.50
2022-11-29T14:48:36.990Z,67.35
2022-11-29T14:51:09.340Z,67.68
2022-11-29T14:53:37.717Z,67.76
2022-11-29T14:56:23.236Z,67.38
2022-11-29T14:59:12.287Z,67.45
2022-11-29T15:01:42.779Z,67.40
2022-11-29T15:04:10.602Z,66.87
2022-11-29T15:06:45.138Z,66.69
2022-11-29T15:09:17.207Z,67.24
2022-11-29T15:11:50.316Z,66.68
2022-11-29T15:14:27.083Z,66.91
2022-11-29T15:17:08.957Z,66.39
2022-11-29T15:19:45.652Z,66.67
2022-11-29T15:22:16.133Z,66.70
2022-11-29T15:24:50.201Z,66.88
2022-11-29T15:27:20.794Z,66.90
2022-11-29T15:30:02.482Z,66.45
2022-11-29T15:32:33.544Z,66.55
2022-11-29T15:35:00.409Z,66.50
2022-11-29T15:37:41.825Z,66.80
2022-11-29T15:40:13.759Z,66.95
2022-11-29T15:42:41.939Z,66.88
2022-11-29T15:45:36.920Z,67.40
2022-11-29T15:48:13.966Z,67.25
2022-11-29T15:50:44.295Z,67.46
2022-11-29T15:53:15.699Z,67.07
2022-11-29T15:55:46.223Z,67.37
2022-11-29T15:58:14.243Z,67.43
2022-11-29T16:00:43.985Z,67.37
2022-11-29T16:03:18.351Z,67.56
2022-11-29T16:05:49.667Z,67.70
2022-11-29T16:08:18.923Z,67.92
2022-11-29T16:10:49.493Z,68.22
2022-11-29T16:13:31.855Z,67.85
2022-11-29T16:16:10.857Z,68.18
2022-11-29T16:18:41.025Z,67.87
2022-11-29T16:21:18.614Z,68.39
2022-11-29T16:23:46.830Z,68.07
2022-11-29T16:26:15.401Z,68.17
2022-11-29T16:28:43.032Z,67.79
2022-11-29T16:31:13.646Z,68.11
2022-11-29T16:33:47.878Z,67.76
2022-11-29T16:36:17.705Z,68.29
2022-11-29T16:38:45.519Z,68.06
2022-11-29T16:41:22.097Z,68.03
2022-11-29T16:43:53.999Z,67.82
2022-11-29T16:46:26.867Z,67.84
2022-11-29T16:48:55.615Z,67.68
2022-11-29T16:51:24.101Z,67.92
2022-11-29T16:53:54.040Z,67.39
2022-11-29T16:56:22.802Z,67.80
2022-11-29T16:59:25.933Z,67.38
2022-11-29T17:01:39.274Z,67.12
2022-11-29T17:04:08.834Z,67.12
2022-11-29T17:06:35.693Z,67.08
2022-11-29T17:09:02.769Z,67.13
2022-11-29T17:11:29.583Z,67.18
2022-11-29T17:13:56.920Z,66.93
2022-11-29T17:16:24.643Z,67.05
2022-11-29T17:18:53.663Z,67.37
2022-11-29T17:21:24.632Z,67.20
2022-11-29T17:23:52.418Z,66.82
2022-11-29T17:26:20.042Z,66.71
2022-11-29T17:28:47.544Z,66.96
2022-11-29T17:31:14.940Z,66.89
2022-11-29T17:33:41.749Z,66.95
2022-11-29T17:36:09.712Z,67.08
2022-11-29T17:38:39.539Z,66.37
2022-11-29T17:41:06.777Z,66.63
2022-11-29T17:43:33.670Z,66.64
2022-11-29T17:46:05.718Z,67.01
2022-11-29T17:48:33.687Z,66.60
2022-11-29T17:51:00.918Z,66.66
2022-11-29T17:53:29.160Z,66.32
2022-11-29T17:56:02.343Z,66.91
2022-11-29T17:58:28.986Z,66.65
2022-11-29T18:01:03.364Z,66.67
2022-11-29T18:03:37.561Z,66.36
2022-11-29T18:06:06.790Z,66.17
2022-11-29T18:08:37.486Z,66.76
2022-11-29T18:11:07.434Z,66.51
2022-11-29T18:13:34.914Z,66.37
2022-11-29T18:16:02.594Z,66.28
2022-11-29T18:21:12.635Z,66.55
2022-11-29T18:26:39.191Z,66.32
2022-11-29T18:37:20.031Z,66.29
2022-11-29T18:45:34.866Z,66.87
2022-11-29T18:48:16.673Z,66.71
2022-11-29T18:53:53.743Z,66.43
2022-11-29T18:56:24.482Z,66.55
2022-11-29T19:04:16.527Z,66.45
2022-11-29T19:06:44.886Z,66.50
2022-11-29T19:09:14.467Z,66.36
2022-11-29T19:14:32.423Z,66.63
2022-11-29T19:17:01.724Z,66.55
2022-11-29T19:19:30.110Z,66.58
2022-11-29T19:24:39.278Z,66.18
2022-11-29T19:27:24.908Z,66.01
2022-11-29T19:29:57.510Z,66.35
2022-11-29T19:32:25.250Z,66.04
2022-11-29T19:34:54.549Z,66.40
2022-11-29T19:40:09.306Z,66.35
2022-11-29T19:45:33.244Z,65.97
2022-11-29T19:48:16.658Z,66.01
2022-11-29T19:50:58.292Z,66.12
2022-11-29T19:56:35.500Z,66.27
2022-11-29T20:04:58.223Z,66.30
2022-11-29T20:07:27.012Z,65.91
2022-11-29T20:12:41.535Z,66.08
2022-11-29T20:26:15.848Z,66.32
2022-11-29T20:28:45.669Z,66.11
2022-11-29T20:47:58.861Z,66.19
2022-11-29T20:50:27.519Z,66.19
2022-11-29T20:56:06.372Z,65.94
2022-11-29T20:58:51.097Z,66.22
2022-11-29T21:32:37.470Z,65.95
2022-11-29T21:44:22.397Z,66.35
2022-11-29T21:52:33.374Z,65.90
2022-11-29T21:57:41.790Z,66.31
2022-11-29T22:00:16.778Z,65.83
2022-11-29T22:02:45.743Z,66.14
2022-11-29T22:05:18.042Z,65.88
2022-11-29T22:07:44.913Z,65.98
2022-11-29T22:12:54.953Z,66.28
2022-11-29T22:15:25.014Z,66.01
2022-11-29T22:17:53.273Z,66.25
2022-11-29T22:23:18.250Z,66.13
2022-11-29T22:25:49.545Z,66.38
2022-11-29T22:31:02.410Z,66.01
2022-11-29T22:33:30.301Z,66.03
2022-11-29T22:44:05.919Z,66.07
2022-11-29T22:49:17.811Z,66.25
2022-11-29T22:51:58.334Z,66.04
2022-11-29T22:57:06.412Z,66.03
2022-11-29T22:59:42.774Z,66.01
2022-11-29T23:04:56.745Z,65.85
2022-11-29T23:07:26.494Z,65.75
2022-11-29T23:10:03.311Z,65.89
2022-11-29T23:15:15.797Z,65.92
2022-11-29T23:17:43.098Z,66.05
2022-11-29T23:20:10.373Z,65.95
2022-11-29T23:22:46.280Z,66.27
2022-11-29T23:25:14.443Z,66.05
2022-11-29T23:27:48.572Z,66.29
2022-11-29T23:30:27.165Z,66.03
2022-11-29T23:32:57.588Z,65.90
2022-11-29T23:35:25.463Z,65.99
2022-11-29T23:40:38.026Z,65.93
2022-11-29T23:43:08.403Z,66.29
2022-11-29T23:45:36.229Z,66.35
2022-11-29T23:48:03.159Z,66.25
2022-11-29T23:50:30.578Z,66.62
2022-11-29T23:53:07.100Z,66.43
2022-11-29T23:55:33.968Z,66.35
2022-11-29T23:58:01.612Z,65.88
